Kirsehir, Turkey
Current Conditions -  °F | °C
As of 11:50 PM on Monday 20 Oct 2014 (Local Time) from LTAZ Reporting Station
Clear Clear  
Wind Chill: 32°   Ceiling: Unl
Heat Index: 36°   Visibility: 6mi
Dew Point: 30°   Wind: 5mph
Humidity: 81%   Direction: 140°SE
Pressure: 30.15"   Gusts: NA
Location:  39.15°N, 34.16°E
Report Text: LTAZ 202050Z 14004KT CAVOK 02/M01 Q1021
Loading
Personal Weather Stations






























Interactive Weather Map
Tropical Storm Tracking
New forecast layout! Learn more

10-Day Weather Forecast

Advertisements
Track Severe Weather on mobile